sensor_id;sensor_type;location;lat;lon;timestamp;pressure;altitude;pressure_sealevel;temperature;humidity
36260;BME280;22296;50.824;5.644;2023-03-16T00:01:21;100906.59;;;13.91;58.71
36260;BME280;22296;50.824;5.644;2023-03-16T00:03:48;100908.06;;;13.88;58.67
36260;BME280;22296;50.824;5.644;2023-03-16T00:09:02;100898.72;;;13.84;58.94
36260;BME280;22296;50.824;5.644;2023-03-16T00:11:29;100909.31;;;13.82;58.84
36260;BME280;22296;50.824;5.644;2023-03-16T00:13:56;100905.50;;;13.78;58.90
36260;BME280;22296;50.824;5.644;2023-03-16T00:16:24;100906.13;;;13.75;59.15
36260;BME280;22296;50.824;5.644;2023-03-16T00:18:50;100902.50;;;13.75;59.07
36260;BME280;22296;50.824;5.644;2023-03-16T00:21:17;100905.63;;;13.73;59.02
36260;BME280;22296;50.824;5.644;2023-03-16T00:23:44;100908.72;;;13.72;58.94
36260;BME280;22296;50.824;5.644;2023-03-16T00:26:11;100909.50;;;13.72;58.71
36260;BME280;22296;50.824;5.644;2023-03-16T00:28:38;100905.41;;;13.69;59.01
36260;BME280;22296;50.824;5.644;2023-03-16T00:31:10;100884.38;;;13.68;58.97
36260;BME280;22296;50.824;5.644;2023-03-16T00:33:38;100894.66;;;13.68;58.86
36260;BME280;22296;50.824;5.644;2023-03-16T00:36:06;100893.94;;;13.62;59.27
36260;BME280;22296;50.824;5.644;2023-03-16T00:38:37;100885.28;;;13.64;58.96
36260;BME280;22296;50.824;5.644;2023-03-16T00:41:05;100878.75;;;13.60;59.01
36260;BME280;22296;50.824;5.644;2023-03-16T00:43:34;100872.06;;;13.61;59.03
36260;BME280;22296;50.824;5.644;2023-03-16T00:46:09;100866.03;;;13.59;58.85
36260;BME280;22296;50.824;5.644;2023-03-16T00:48:39;100865.53;;;13.57;58.79
36260;BME280;22296;50.824;5.644;2023-03-16T00:51:11;100861.09;;;13.56;58.98
36260;BME280;22296;50.824;5.644;2023-03-16T00:53:40;100868.59;;;13.55;59.13
36260;BME280;22296;50.824;5.644;2023-03-16T00:56:07;100863.38;;;13.54;59.04
36260;BME280;22296;50.824;5.644;2023-03-16T00:58:37;100860.06;;;13.52;59.01
36260;BME280;22296;50.824;5.644;2023-03-16T01:01:07;100845.09;;;13.53;59.11
36260;BME280;22296;50.824;5.644;2023-03-16T01:03:35;100851.13;;;13.55;58.95
36260;BME280;22296;50.824;5.644;2023-03-16T01:06:13;100849.59;;;13.49;59.14
36260;BME280;22296;50.824;5.644;2023-03-16T01:08:40;100843.25;;;13.48;59.07
36260;BME280;22296;50.824;5.644;2023-03-16T01:11:19;100843.88;;;13.45;59.37
36260;BME280;22296;50.824;5.644;2023-03-16T01:13:48;100833.09;;;13.44;59.18
36260;BME280;22296;50.824;5.644;2023-03-16T01:16:16;100826.56;;;13.40;59.23
36260;BME280;22296;50.824;5.644;2023-03-16T01:18:47;100825.09;;;13.42;59.23
36260;BME280;22296;50.824;5.644;2023-03-16T01:21:15;100826.72;;;13.43;59.17
36260;BME280;22296;50.824;5.644;2023-03-16T01:23:42;100823.44;;;13.41;59.32
36260;BME280;22296;50.824;5.644;2023-03-16T01:26:10;100817.72;;;13.38;59.21
36260;BME280;22296;50.824;5.644;2023-03-16T01:28:37;100809.72;;;13.36;59.36
36260;BME280;22296;50.824;5.644;2023-03-16T01:31:08;100803.84;;;13.38;59.29
36260;BME280;22296;50.824;5.644;2023-03-16T01:33:36;100802.25;;;13.37;59.12
36260;BME280;22296;50.824;5.644;2023-03-16T01:36:12;100794.56;;;13.34;59.22
36260;BME280;22296;50.824;5.644;2023-03-16T01:38:46;100800.09;;;13.34;59.36
36260;BME280;22296;50.824;5.644;2023-03-16T01:41:13;100794.00;;;13.32;59.47
36260;BME280;22296;50.824;5.644;2023-03-16T01:43:40;100788.47;;;13.32;59.34
36260;BME280;22296;50.824;5.644;2023-03-16T01:46:23;100780.16;;;13.32;59.25
36260;BME280;22296;50.824;5.644;2023-03-16T01:49:05;100784.09;;;13.31;59.05
36260;BME280;22296;50.824;5.644;2023-03-16T01:51:57;100777.50;;;13.27;59.16
36260;BME280;22296;50.824;5.644;2023-03-16T01:54:29;100784.72;;;13.28;59.31
36260;BME280;22296;50.824;5.644;2023-03-16T01:59:52;100777.84;;;13.25;59.28
36260;BME280;22296;50.824;5.644;2023-03-16T02:02:24;100779.59;;;13.21;59.40
36260;BME280;22296;50.824;5.644;2023-03-16T02:04:57;100770.97;;;13.23;59.32
36260;BME280;22296;50.824;5.644;2023-03-16T02:07:31;100779.59;;;13.21;59.41
36260;BME280;22296;50.824;5.644;2023-03-16T02:10:02;100769.44;;;13.17;59.68
36260;BME280;22296;50.824;5.644;2023-03-16T02:12:30;100777.44;;;13.18;59.30
36260;BME280;22296;50.824;5.644;2023-03-16T02:15:00;100775.97;;;13.21;59.55
36260;BME280;22296;50.824;5.644;2023-03-16T02:17:28;100768.91;;;13.14;59.43
36260;BME280;22296;50.824;5.644;2023-03-16T02:22:48;100771.69;;;13.14;59.40
36260;BME280;22296;50.824;5.644;2023-03-16T02:25:17;100771.19;;;13.12;59.43
36260;BME280;22296;50.824;5.644;2023-03-16T02:30:16;100757.47;;;13.07;59.80
36260;BME280;22296;50.824;5.644;2023-03-16T02:33:03;100759.09;;;13.08;59.40
36260;BME280;22296;50.824;5.644;2023-03-16T02:35:33;100760.72;;;13.09;59.53
36260;BME280;22296;50.824;5.644;2023-03-16T02:38:01;100762.38;;;13.10;59.31
36260;BME280;22296;50.824;5.644;2023-03-16T02:40:33;100758.78;;;13.10;59.32
36260;BME280;22296;50.824;5.644;2023-03-16T02:43:11;100753.81;;;13.07;59.49
36260;BME280;22296;50.824;5.644;2023-03-16T02:45:50;100760.81;;;13.04;59.82
36260;BME280;22296;50.824;5.644;2023-03-16T02:48:28;100757.97;;;13.09;59.62
36260;BME280;22296;50.824;5.644;2023-03-16T02:50:58;100761.09;;;13.03;59.71
36260;BME280;22296;50.824;5.644;2023-03-16T02:53:26;100760.31;;;13.02;59.63
36260;BME280;22296;50.824;5.644;2023-03-16T02:55:56;100765.03;;;13.02;59.71
36260;BME280;22296;50.824;5.644;2023-03-16T02:58:23;100779.97;;;13.01;59.87
36260;BME280;22296;50.824;5.644;2023-03-16T03:00:49;100768.06;;;13.00;59.73
36260;BME280;22296;50.824;5.644;2023-03-16T03:03:16;100757.94;;;12.96;59.79
36260;BME280;22296;50.824;5.644;2023-03-16T03:05:43;100769.84;;;12.96;60.09
36260;BME280;22296;50.824;5.644;2023-03-16T03:08:10;100754.56;;;12.99;59.93
36260;BME280;22296;50.824;5.644;2023-03-16T03:10:38;100753.53;;;12.95;60.02
36260;BME280;22296;50.824;5.644;2023-03-16T03:13:05;100754.97;;;12.92;59.83
36260;BME280;22296;50.824;5.644;2023-03-16T03:15:36;100757.63;;;12.97;59.83
36260;BME280;22296;50.824;5.644;2023-03-16T03:18:07;100749.94;;;12.94;59.75
36260;BME280;22296;50.824;5.644;2023-03-16T03:20:34;100742.28;;;12.91;60.03
36260;BME280;22296;50.824;5.644;2023-03-16T03:23:01;100746.16;;;12.90;59.88
36260;BME280;22296;50.824;5.644;2023-03-16T03:25:28;100740.63;;;12.90;60.04
36260;BME280;22296;50.824;5.644;2023-03-16T03:27:55;100735.09;;;12.90;60.16
36260;BME280;22296;50.824;5.644;2023-03-16T03:30:23;100730.38;;;12.91;60.00
36260;BME280;22296;50.824;5.644;2023-03-16T03:32:50;100731.22;;;12.91;59.86
36260;BME280;22296;50.824;5.644;2023-03-16T03:35:21;100734.06;;;12.86;60.02
36260;BME280;22296;50.824;5.644;2023-03-16T03:37:48;100731.81;;;12.88;59.99
36260;BME280;22296;50.824;5.644;2023-03-16T03:40:17;100739.59;;;12.86;59.99
36260;BME280;22296;50.824;5.644;2023-03-16T03:42:48;100730.78;;;12.84;60.04
36260;BME280;22296;50.824;5.644;2023-03-16T03:45:15;100738.25;;;12.84;60.05
36260;BME280;22296;50.824;5.644;2023-03-16T03:47:43;100733.06;;;12.82;59.90
36260;BME280;22296;50.824;5.644;2023-03-16T03:50:15;100732.72;;;12.84;59.94
36260;BME280;22296;50.824;5.644;2023-03-16T03:52:50;100734.16;;;12.81;60.01
36260;BME280;22296;50.824;5.644;2023-03-16T03:55:17;100736.94;;;12.81;60.22
36260;BME280;22296;50.824;5.644;2023-03-16T03:57:44;100731.41;;;12.81;60.02
36260;BME280;22296;50.824;5.644;2023-03-16T04:00:12;100728.13;;;12.79;60.25
36260;BME280;22296;50.824;5.644;2023-03-16T04:02:40;100741.66;;;12.81;60.05
36260;BME280;22296;50.824;5.644;2023-03-16T04:05:16;100723.72;;;12.78;60.22
36260;BME280;22296;50.824;5.644;2023-03-16T04:07:44;100727.31;;;12.79;59.86
36260;BME280;22296;50.824;5.644;2023-03-16T04:10:12;100732.63;;;12.75;60.29
36260;BME280;22296;50.824;5.644;2023-03-16T04:12:41;100723.22;;;12.76;60.32
36260;BME280;22296;50.824;5.644;2023-03-16T04:15:11;100717.97;;;12.75;60.03
36260;BME280;22296;50.824;5.644;2023-03-16T04:18:07;100716.03;;;12.75;60.30
36260;BME280;22296;50.824;5.644;2023-03-16T04:20:34;100712.75;;;12.73;60.31
36260;BME280;22296;50.824;5.644;2023-03-16T04:23:02;100713.88;;;12.72;60.16
36260;BME280;22296;50.824;5.644;2023-03-16T04:25:30;100711.94;;;12.73;60.32
36260;BME280;22296;50.824;5.644;2023-03-16T04:27:58;100710.28;;;12.72;59.95
36260;BME280;22296;50.824;5.644;2023-03-16T04:30:28;100703.97;;;12.71;60.30
36260;BME280;22296;50.824;5.644;2023-03-16T04:33:08;100708.97;;;12.69;60.15
36260;BME280;22296;50.824;5.644;2023-03-16T04:35:35;100706.19;;;12.69;60.18
36260;BME280;22296;50.824;5.644;2023-03-16T04:38:02;100702.91;;;12.67;60.47
36260;BME280;22296;50.824;5.644;2023-03-16T04:40:38;100700.16;;;12.67;60.32
36260;BME280;22296;50.824;5.644;2023-03-16T04:43:12;100696.56;;;12.67;60.29
36260;BME280;22296;50.824;5.644;2023-03-16T04:45:40;100695.22;;;12.64;60.41
36260;BME280;22296;50.824;5.644;2023-03-16T04:48:08;100688.59;;;12.65;60.19
36260;BME280;22296;50.824;5.644;2023-03-16T04:50:36;100698.00;;;12.64;59.98
36260;BME280;22296;50.824;5.644;2023-03-16T04:53:03;100694.13;;;12.65;60.28
36260;BME280;22296;50.824;5.644;2023-03-16T04:55:30;100695.22;;;12.64;60.37
36260;BME280;22296;50.824;5.644;2023-03-16T04:57:57;100694.72;;;12.62;60.32
36260;BME280;22296;50.824;5.644;2023-03-16T05:00:27;100689.19;;;12.62;60.20
36260;BME280;22296;50.824;5.644;2023-03-16T05:03:05;100692.78;;;12.63;60.32
36260;BME280;22296;50.824;5.644;2023-03-16T05:05:32;100684.78;;;12.61;60.34
36260;BME280;22296;50.824;5.644;2023-03-16T05:08:00;100687.56;;;12.61;60.34
36260;BME280;22296;50.824;5.644;2023-03-16T05:10:29;100685.91;;;12.60;60.44
36260;BME280;22296;50.824;5.644;2023-03-16T05:12:56;100689.50;;;12.61;60.14
36260;BME280;22296;50.824;5.644;2023-03-16T05:15:23;100685.91;;;12.60;60.44
36260;BME280;22296;50.824;5.644;2023-03-16T05:18:01;100682.63;;;12.58;60.25
36260;BME280;22296;50.824;5.644;2023-03-16T05:20:28;100675.97;;;12.59;60.14
36260;BME280;22296;50.824;5.644;2023-03-16T05:22:58;100677.09;;;12.58;60.31
36260;BME280;22296;50.824;5.644;2023-03-16T05:25:29;100670.75;;;12.57;60.21
36260;BME280;22296;50.824;5.644;2023-03-16T05:28:00;100676.59;;;12.56;60.36
36260;BME280;22296;50.824;5.644;2023-03-16T05:30:33;100679.97;;;12.53;60.55
36260;BME280;22296;50.824;5.644;2023-03-16T05:33:03;100676.09;;;12.54;60.40
36260;BME280;22296;50.824;5.644;2023-03-16T05:35:30;100672.78;;;12.52;60.43
36260;BME280;22296;50.824;5.644;2023-03-16T05:38:03;100673.63;;;12.52;60.48
36260;BME280;22296;50.824;5.644;2023-03-16T05:40:32;100665.81;;;12.54;60.29
36260;BME280;22296;50.824;5.644;2023-03-16T05:43:09;100673.50;;;12.57;60.15
36260;BME280;22296;50.824;5.644;2023-03-16T05:45:42;100665.81;;;12.54;60.29
36260;BME280;22296;50.824;5.644;2023-03-16T05:48:13;100659.50;;;12.54;60.32
36260;BME280;22296;50.824;5.644;2023-03-16T05:50:59;100657.03;;;12.52;60.37
36260;BME280;22296;50.824;5.644;2023-03-16T05:53:28;100650.16;;;12.50;60.41
36260;BME280;22296;50.824;5.644;2023-03-16T05:56:03;100657.63;;;12.49;60.72
36260;BME280;22296;50.824;5.644;2023-03-16T05:58:33;100660.72;;;12.48;60.34
36260;BME280;22296;50.824;5.644;2023-03-16T06:01:04;100655.19;;;12.48;60.57
36260;BME280;22296;50.824;5.644;2023-03-16T06:03:32;100658.25;;;12.46;60.40
36260;BME280;22296;50.824;5.644;2023-03-16T06:06:00;100653.03;;;12.45;60.41
36260;BME280;22296;50.824;5.644;2023-03-16T06:08:35;100655.81;;;12.45;60.57
36260;BME280;22296;50.824;5.644;2023-03-16T06:11:09;100660.81;;;12.43;60.56
36260;BME280;22296;50.824;5.644;2023-03-16T06:13:37;100661.97;;;12.42;60.38
36260;BME280;22296;50.824;5.644;2023-03-16T06:16:05;100661.13;;;12.41;60.37
36260;BME280;22296;50.824;5.644;2023-03-16T06:18:34;100656.72;;;12.40;60.45
36260;BME280;22296;50.824;5.644;2023-03-16T06:21:01;100660.31;;;12.41;60.45
36260;BME280;22296;50.824;5.644;2023-03-16T06:23:31;100658.97;;;12.38;60.52
36260;BME280;22296;50.824;5.644;2023-03-16T06:25:58;100660.91;;;12.38;60.52
36260;BME280;22296;50.824;5.644;2023-03-16T06:28:28;100659.81;;;12.39;60.31
36260;BME280;22296;50.824;5.644;2023-03-16T06:30:56;100661.25;;;12.36;60.51
36260;BME280;22296;50.824;5.644;2023-03-16T06:33:28;100664.50;;;12.38;60.42
36260;BME280;22296;50.824;5.644;2023-03-16T06:35:55;100661.25;;;12.36;60.43
36260;BME280;22296;50.824;5.644;2023-03-16T06:38:41;100661.03;;;12.33;60.45
36260;BME280;22296;50.824;5.644;2023-03-16T06:41:43;100649.97;;;12.33;60.31
36260;BME280;22296;50.824;5.644;2023-03-16T06:44:13;100649.47;;;12.31;60.49
36260;BME280;22296;50.824;5.644;2023-03-16T06:46:50;100646.16;;;12.29;60.36
36260;BME280;22296;50.824;5.644;2023-03-16T06:49:18;100647.00;;;12.29;60.20
36260;BME280;22296;50.824;5.644;2023-03-16T06:51:45;100646.50;;;12.27;60.45
36260;BME280;22296;50.824;5.644;2023-03-16T06:54:12;100639.00;;;12.28;60.49
36260;BME280;22296;50.824;5.644;2023-03-16T06:56:39;100634.91;;;12.25;60.50
36260;BME280;22296;50.824;5.644;2023-03-16T06:59:06;100636.31;;;12.23;60.50
36260;BME280;22296;50.824;5.644;2023-03-16T07:01:34;100639.63;;;12.25;60.31
36260;BME280;22296;50.824;5.644;2023-03-16T07:04:01;100640.75;;;12.24;60.22
36260;BME280;22296;50.824;5.644;2023-03-16T07:06:31;100636.88;;;12.25;60.38
36260;BME280;22296;50.824;5.644;2023-03-16T07:08:58;100654.56;;;12.24;60.18
36260;BME280;22296;50.824;5.644;2023-03-16T07:11:28;100641.34;;;12.21;60.38
36260;BME280;22296;50.824;5.644;2023-03-16T07:13:56;100637.47;;;12.22;60.27
36260;BME280;22296;50.824;5.644;2023-03-16T07:16:26;100633.06;;;12.21;60.26
36260;BME280;22296;50.824;5.644;2023-03-16T07:18:57;100633.06;;;12.21;60.31
36260;BME280;22296;50.824;5.644;2023-03-16T07:21:24;100642.47;;;12.20;60.34
36260;BME280;22296;50.824;5.644;2023-03-16T07:23:51;100648.00;;;12.20;60.33
36260;BME280;22296;50.824;5.644;2023-03-16T07:26:22;100654.34;;;12.20;60.29
36260;BME280;22296;50.824;5.644;2023-03-16T07:28:53;100651.91;;;12.19;60.24
36260;BME280;22296;50.824;5.644;2023-03-16T07:31:23;100650.69;;;12.25;59.99
36260;BME280;22296;50.824;5.644;2023-03-16T07:33:51;100639.81;;;12.28;59.94
36260;BME280;22296;50.824;5.644;2023-03-16T07:36:27;100636.75;;;12.30;59.87
36260;BME280;22296;50.824;5.644;2023-03-16T07:38:58;100643.81;;;12.36;59.62
36260;BME280;22296;50.824;5.644;2023-03-16T07:41:24;100643.72;;;12.41;59.52
36260;BME280;22296;50.824;5.644;2023-03-16T07:43:51;100643.09;;;12.44;59.60
36260;BME280;22296;50.824;5.644;2023-03-16T07:46:23;100637.16;;;12.50;59.35
36260;BME280;22296;50.824;5.644;2023-03-16T07:48:50;100640.53;;;12.61;59.29
36260;BME280;22296;50.824;5.644;2023-03-16T07:51:16;100633.34;;;12.74;58.99
36260;BME280;22296;50.824;5.644;2023-03-16T07:53:47;100633.59;;;12.86;58.69
36260;BME280;22296;50.824;5.644;2023-03-16T07:56:22;100637.28;;;12.95;58.30
36260;BME280;22296;50.824;5.644;2023-03-16T07:58:53;100631.41;;;13.10;58.08
36260;BME280;22296;50.824;5.644;2023-03-16T08:01:21;100637.84;;;13.19;57.77
36260;BME280;22296;50.824;5.644;2023-03-16T08:03:48;100639.03;;;13.27;57.72
36260;BME280;22296;50.824;5.644;2023-03-16T08:06:15;100634.91;;;13.38;57.23
36260;BME280;22296;50.824;5.644;2023-03-16T08:08:42;100633.44;;;13.40;57.46
36260;BME280;22296;50.824;5.644;2023-03-16T08:11:15;100624.22;;;13.45;57.26
36260;BME280;22296;50.824;5.644;2023-03-16T08:13:54;100623.31;;;13.58;57.42
36260;BME280;22296;50.824;5.644;2023-03-16T08:16:26;100626.69;;;13.77;57.47
36260;BME280;22296;50.824;5.644;2023-03-16T08:18:57;100633.84;;;14.00;56.63
36260;BME280;22296;50.824;5.644;2023-03-16T08:21:24;100630.59;;;14.07;56.86
36260;BME280;22296;50.824;5.644;2023-03-16T08:23:52;100617.13;;;14.22;55.91
36260;BME280;22296;50.824;5.644;2023-03-16T08:26:21;100622.13;;;14.12;56.06
36260;BME280;22296;50.824;5.644;2023-03-16T08:28:52;100628.50;;;14.12;56.07
36260;BME280;22296;50.824;5.644;2023-03-16T08:31:20;100625.09;;;14.15;55.74
36260;BME280;22296;50.824;5.644;2023-03-16T08:34:00;100618.41;;;14.16;55.71
36260;BME280;22296;50.824;5.644;2023-03-16T08:36:29;100630.50;;;14.20;55.88
36260;BME280;22296;50.824;5.644;2023-03-16T08:38:57;100613.19;;;14.23;55.54
36260;BME280;22296;50.824;5.644;2023-03-16T08:41:37;100609.47;;;14.28;55.66
36260;BME280;22296;50.824;5.644;2023-03-16T08:44:13;100622.41;;;14.33;55.36
36260;BME280;22296;50.824;5.644;2023-03-16T08:46:41;100613.78;;;14.34;55.39
36260;BME280;22296;50.824;5.644;2023-03-16T08:49:08;100612.13;;;14.33;55.23
36260;BME280;22296;50.824;5.644;2023-03-16T08:51:35;100611.66;;;14.40;55.34
36260;BME280;22296;50.824;5.644;2023-03-16T08:54:02;100617.22;;;14.40;55.19
36260;BME280;22296;50.824;5.644;2023-03-16T08:56:29;100610.03;;;14.39;55.19
36260;BME280;22296;50.824;5.644;2023-03-16T08:58:56;100605.47;;;14.43;55.08
36260;BME280;22296;50.824;5.644;2023-03-16T09:01:23;100614.94;;;14.42;55.25
36260;BME280;22296;50.824;5.644;2023-03-16T09:03:51;100603.19;;;14.45;54.93
36260;BME280;22296;50.824;5.644;2023-03-16T09:06:18;100605.81;;;14.50;54.96
36260;BME280;22296;50.824;5.644;2023-03-16T09:08:45;100609.91;;;14.69;54.65
36260;BME280;22296;50.824;5.644;2023-03-16T09:11:15;100600.00;;;14.86;54.25
36260;BME280;22296;50.824;5.644;2023-03-16T09:13:43;100597.88;;;14.91;54.23
36260;BME280;22296;50.824;5.644;2023-03-16T09:16:11;100607.50;;;14.85;54.24
36260;BME280;22296;50.824;5.644;2023-03-16T09:18:39;100599.34;;;14.80;54.33
36260;BME280;22296;50.824;5.644;2023-03-16T09:21:09;100592.16;;;14.79;54.37
36260;BME280;22296;50.824;5.644;2023-03-16T09:23:39;100597.22;;;14.86;54.07
36260;BME280;22296;50.824;5.644;2023-03-16T09:26:08;100594.63;;;14.80;54.28
36260;BME280;22296;50.824;5.644;2023-03-16T09:28:35;100604.25;;;14.83;54.29
36260;BME280;22296;50.824;5.644;2023-03-16T09:31:05;100594.28;;;14.73;54.35
36260;BME280;22296;50.824;5.644;2023-03-16T09:33:34;100605.53;;;14.77;54.35
36260;BME280;22296;50.824;5.644;2023-03-16T09:36:01;100595.41;;;14.81;54.15
36260;BME280;22296;50.824;5.644;2023-03-16T09:38:29;100601.97;;;14.85;53.98
36260;BME280;22296;50.824;5.644;2023-03-16T09:41:05;100603.59;;;14.86;53.95
36260;BME280;22296;50.824;5.644;2023-03-16T09:46:35;100600.47;;;14.79;54.28
36260;BME280;22296;50.824;5.644;2023-03-16T09:49:04;100594.75;;;14.84;54.21
36260;BME280;22296;50.824;5.644;2023-03-16T09:54:38;100582.03;;;14.83;54.30
36260;BME280;22296;50.824;5.644;2023-03-16T09:57:18;100590.38;;;14.83;54.07
36260;BME280;22296;50.824;5.644;2023-03-16T09:59:48;100586.78;;;14.91;54.01
36260;BME280;22296;50.824;5.644;2023-03-16T10:05:20;100585.28;;;14.85;54.17
36260;BME280;22296;50.824;5.644;2023-03-16T10:10:38;100574.19;;;14.85;54.29
36260;BME280;22296;50.824;5.644;2023-03-16T10:15:44;100578.94;;;14.84;54.39
36260;BME280;22296;50.824;5.644;2023-03-16T10:18:15;100564.09;;;14.89;54.33
36260;BME280;22296;50.824;5.644;2023-03-16T10:20:44;100568.00;;;14.88;54.10
36260;BME280;22296;50.824;5.644;2023-03-16T10:23:19;100557.72;;;14.89;54.15
36260;BME280;22296;50.824;5.644;2023-03-16T10:25:48;100563.75;;;14.91;54.16
36260;BME280;22296;50.824;5.644;2023-03-16T10:28:23;100560.97;;;14.91;54.27
36260;BME280;22296;50.824;5.644;2023-03-16T10:30:53;100552.31;;;14.92;54.25
36260;BME280;22296;50.824;5.644;2023-03-16T10:33:29;100548.38;;;15.10;54.07
36260;BME280;22296;50.824;5.644;2023-03-16T10:38:32;100543.78;;;15.31;53.68
36260;BME280;22296;50.824;5.644;2023-03-16T10:43:55;100539.84;;;15.50;53.29
36260;BME280;22296;50.824;5.644;2023-03-16T10:46:26;100538.38;;;15.52;53.27
36260;BME280;22296;50.824;5.644;2023-03-16T10:48:58;100539.16;;;15.53;53.22
36260;BME280;22296;50.824;5.644;2023-03-16T10:51:32;100541.78;;;15.58;53.44
36260;BME280;22296;50.824;5.644;2023-03-16T10:54:12;100539.81;;;15.67;53.24
36260;BME280;22296;50.824;5.644;2023-03-16T10:56:40;100531.47;;;15.67;53.09
36260;BME280;22296;50.824;5.644;2023-03-16T11:01:48;100538.44;;;15.73;52.99
36260;BME280;22296;50.824;5.644;2023-03-16T11:04:17;100538.66;;;15.59;53.21
36260;BME280;22296;50.824;5.644;2023-03-16T11:06:54;100538.34;;;15.61;53.34
36260;BME280;22296;50.824;5.644;2023-03-16T11:09:24;100537.69;;;15.64;53.23
36260;BME280;22296;50.824;5.644;2023-03-16T11:11:53;100531.63;;;15.62;53.10
36260;BME280;22296;50.824;5.644;2023-03-16T11:14:23;100519.84;;;15.65;53.03
36260;BME280;22296;50.824;5.644;2023-03-16T11:19:30;100517.25;;;15.60;53.26
36260;BME280;22296;50.824;5.644;2023-03-16T11:24:53;100515.59;;;15.59;53.48
36260;BME280;22296;50.824;5.644;2023-03-16T11:27:24;100506.13;;;15.60;53.21
36260;BME280;22296;50.824;5.644;2023-03-16T11:30:03;100511.69;;;15.60;53.23
36260;BME280;22296;50.824;5.644;2023-03-16T11:32:35;100498.44;;;15.65;53.10
36260;BME280;22296;50.824;5.644;2023-03-16T11:35:23;100507.13;;;15.64;53.21
36260;BME280;22296;50.824;5.644;2023-03-16T11:44:36;100479.31;;;15.64;53.45
36260;BME280;22296;50.824;5.644;2023-03-16T11:47:11;100471.44;;;15.66;53.40
36260;BME280;22296;50.824;5.644;2023-03-16T11:50:09;100476.81;;;15.71;53.32
36260;BME280;22296;50.824;5.644;2023-03-16T11:55:41;100462.59;;;15.72;53.24
36260;BME280;22296;50.824;5.644;2023-03-16T12:07:14;100447.47;;;15.82;53.19
36260;BME280;22296;50.824;5.644;2023-03-16T12:10:06;100450.25;;;15.82;53.23
36260;BME280;22296;50.824;5.644;2023-03-16T12:15:44;100442.69;;;15.91;52.99
36260;BME280;22296;50.824;5.644;2023-03-16T12:18:17;100426.97;;;15.95;52.87
36260;BME280;22296;50.824;5.644;2023-03-16T12:21:05;100421.53;;;15.98;52.76
36260;BME280;22296;50.824;5.644;2023-03-16T12:23:40;100422.03;;;16.01;52.73
36260;BME280;22296;50.824;5.644;2023-03-16T12:26:08;100422.84;;;16.01;52.81
36260;BME280;22296;50.824;5.644;2023-03-16T12:28:38;100421.19;;;16.00;52.92
36260;BME280;22296;50.824;5.644;2023-03-16T12:34:06;100420.53;;;16.03;52.70
36260;BME280;22296;50.824;5.644;2023-03-16T12:39:28;100409.66;;;16.10;52.86
36260;BME280;22296;50.824;5.644;2023-03-16T12:44:55;100400.19;;;16.11;52.75
36260;BME280;22296;50.824;5.644;2023-03-16T12:49:50;100392.78;;;16.15;52.72
36260;BME280;22296;50.824;5.644;2023-03-16T12:52:20;100386.28;;;16.11;52.79
36260;BME280;22296;50.824;5.644;2023-03-16T12:57:41;100388.66;;;16.21;52.69
36260;BME280;22296;50.824;5.644;2023-03-16T13:00:10;100384.56;;;16.19;52.79
36260;BME280;22296;50.824;5.644;2023-03-16T13:02:43;100380.78;;;16.23;52.68
36260;BME280;22296;50.824;5.644;2023-03-16T13:05:16;100368.84;;;16.23;52.62
36260;BME280;22296;50.824;5.644;2023-03-16T13:07:50;100364.22;;;16.27;52.62
36260;BME280;22296;50.824;5.644;2023-03-16T13:10:18;100368.28;;;16.29;52.45
36260;BME280;22296;50.824;5.644;2023-03-16T13:12:48;100353.19;;;16.30;52.45
36260;BME280;22296;50.824;5.644;2023-03-16T13:17:49;100351.16;;;16.39;52.41
36260;BME280;22296;50.824;5.644;2023-03-16T13:20:29;100351.38;;;16.34;52.45
36260;BME280;22296;50.824;5.644;2023-03-16T13:26:13;100329.03;;;16.43;52.47
36260;BME280;22296;50.824;5.644;2023-03-16T13:28:43;100325.88;;;16.44;52.42
36260;BME280;22296;50.824;5.644;2023-03-16T13:31:32;100321.97;;;16.45;52.37
36260;BME280;22296;50.824;5.644;2023-03-16T13:34:02;100330.78;;;16.47;52.43
36260;BME280;22296;50.824;5.644;2023-03-16T13:36:31;100327.31;;;16.50;52.38
36260;BME280;22296;50.824;5.644;2023-03-16T13:39:09;100316.66;;;16.52;52.20
36260;BME280;22296;50.824;5.644;2023-03-16T13:41:39;100308.81;;;16.55;52.19
36260;BME280;22296;50.824;5.644;2023-03-16T13:44:13;100307.31;;;16.57;52.17
36260;BME280;22296;50.824;5.644;2023-03-16T13:46:40;100297.81;;;16.58;52.09
36260;BME280;22296;50.824;5.644;2023-03-16T13:49:10;100297.22;;;16.65;52.00
36260;BME280;22296;50.824;5.644;2023-03-16T13:51:37;100300.50;;;16.67;51.91
36260;BME280;22296;50.824;5.644;2023-03-16T13:54:18;100295.63;;;16.64;52.12
36260;BME280;22296;50.824;5.644;2023-03-16T13:56:47;100283.31;;;16.65;51.95
36260;BME280;22296;50.824;5.644;2023-03-16T13:59:14;100279.03;;;16.67;52.05
36260;BME280;22296;50.824;5.644;2023-03-16T14:01:45;100274.38;;;16.71;52.13
36260;BME280;22296;50.824;5.644;2023-03-16T14:04:14;100277.53;;;16.70;51.91
36260;BME280;22296;50.824;5.644;2023-03-16T14:06:58;100276.84;;;16.73;51.85
36260;BME280;22296;50.824;5.644;2023-03-16T14:09:32;100278.44;;;16.74;52.00
36260;BME280;22296;50.824;5.644;2023-03-16T14:12:00;100265.72;;;16.73;51.92
36260;BME280;22296;50.824;5.644;2023-03-16T14:14:37;100265.09;;;16.79;52.04
36260;BME280;22296;50.824;5.644;2023-03-16T14:17:13;100260.81;;;16.82;51.93
36260;BME280;22296;50.824;5.644;2023-03-16T14:19:45;100258.16;;;16.85;51.90
36260;BME280;22296;50.824;5.644;2023-03-16T14:24:45;100248.28;;;16.88;51.81
36260;BME280;22296;50.824;5.644;2023-03-16T14:30:18;100236.00;;;16.89;51.70
36260;BME280;22296;50.824;5.644;2023-03-16T14:32:58;100243.06;;;17.10;51.83
36260;BME280;22296;50.824;5.644;2023-03-16T14:35:28;100241.78;;;17.20;51.62